Observations for SOUTHAMPTON WX CNTR, United Kingdom (EGHI)

EGHI 200620Z 01004KT CAVOK 10/06 Q1030  
EGHI 200550Z 02004KT CAVOK 08/05 Q1030  
EGHI 200520Z 01005KT CAVOK 07/05 Q1030  
EGHI 200450Z 02004KT CAVOK 07/04 Q1030  
EGHI 192120Z 00000KT CAVOK 09/06 Q1030  
EGHI 192050Z 36003KT CAVOK 10/06 Q1030  
EGHI 192020Z VRB01KT CAVOK 12/05 Q1030  
EGHI 191950Z 06001KT CAVOK 12/06 Q1029  
EGHI 191920Z 07002KT CAVOK 16/04 Q1029  
EGHI 191850Z 07002KT CAVOK 19/05 Q1029  
EGHI 191820Z VRB03KT CAVOK 20/05 Q1028  
EGHI 191750Z 05006KT CAVOK 20/05 Q1028  
EGHI 191720Z 04006KT CAVOK 20/05 Q1028  
EGHI 191650Z 03008KT CAVOK 21/06 Q1027  
EGHI 191620Z 05007KT 010V120 CAVOK 22/06 Q1027  
EGHI 191550Z 03006KT 360V100 CAVOK 22/07 Q1027  
EGHI 191520Z 03008KT 360V080 9999 FEW046 21/07 Q1027
EGHI 191450Z 11004KT 040V180 CAVOK 22/07 Q1027  
EGHI 191420Z 13006KT 080V170 CAVOK 22/07 Q1027  
EGHI 191350Z 08006KT 030V160 CAVOK 22/07 Q1027  
EGHI 191320Z 36005KT 310V060 CAVOK 21/08 Q1027  
EGHI 191250Z 06005KT 360V110 CAVOK 22/09 Q1028  
EGHI 191220Z 03008KT 350V100 CAVOK 20/08 Q1028  
EGHI 191150Z 03008KT 350V100 CAVOK 20/08 Q1028  
EGHI 191120Z 04007KT 350V100 CAVOK 19/09 Q1027  
EGHI 191050Z 03006KT 340V090 CAVOK 19/08 Q1027  
EGHI 191020Z 03005KT 350V080 CAVOK 19/07 Q1028  
EGHI 190950Z 03006KT 360V080 CAVOK 17/07 Q1027  
EGHI 190920Z 02006KT CAVOK 16/07 Q1028  
EGHI 190850Z 04008KT 010V070 CAVOK 15/07 Q1027  
EGHI 190820Z 03008KT CAVOK 14/06 Q1027  
EGHI 190750Z 02006KT 340V040 CAVOK 12/06 Q1027  
EGHI 190720Z 01007KT CAVOK 11/06 Q1027  
EGHI 190650Z 01006KT CAVOK 10/06 Q1027  
EGHI 190620Z 01006KT CAVOK 09/05 Q1026  
EGHI 190550Z 36005KT CAVOK 08/05 Q1026